ボードー の空港の天気 - METARとTAF

Bodo Vi ( ENBO / BOO ) - ノルウェー ヌールラン県ボードー
飛行場実況気象(Metar)
観測時間01/19 11:50 CET (01/19 10:50 UTC)
風向・風速南 8m/s
視程10km以上
天気現象弱いしゅう雪
少しの雲 雲底高度 150m
全天の4割程度の雲 雲底高度 370m
全天の8割程度の雲 雲底高度 430m
気温-2℃
湿度86%
気圧1000hPa
METARENBO 191050Z 19015KT 9999 4000E -SHSN FEW005 SCT012CB BKN014 M02/M04 Q1000 TEMPO 29015KT 0600 SHSNGS VV006
過去の天気等 Google飛行場航空写真 Wunderground天気予報

過去48時間のMETAR

飛行場予報(TAF)
発表時間: -
19日7時 CET ~ 20日1時 CET に一時的に
視程600m
天気現象しゅう雪あられ
全天を覆う雲 鉛直視程 180m
19日7時 CET ~ 19日13時 CET に 確率 30% で一時的に
天気現象
19日8時 CET ~ 19日13時 CET に一時的に
風向・風速不定 3m/s
19日15時 CET ~ 19日17時 CET に徐々に
風向・風速東 4m/s
TAF ENBO 1906/2006 29015KT 9999 FEW012CB SCT040
TEMPO 1906/1924 0600 SHSNGS VV006
PROB30 TEMPO 1906/1912 TS
TEMPO 1907/1912 VRB05KT
BECMG 1914/1916 10008KT